Thursday, September 20, 2018, 6:49 PM EDT
Back to Local

KPVC, Provincetown, Provincetown Municipal Airport

Location: Provincetown, MA, United States Lat: 42.067
Local Time: 6:49 PM EDT (22:49 GMT) Lon: -70.217
Time Zone: US/Eastern Elev: 6 ft

Show me the last for .
Show Decoded

2018-09-20 17:56 METAR KPVC 202156Z AUTO 09007KT 10SM FEW002 16/12 A3027 RMK AO2 SLP250 T01610117
                 =
2018-09-20 16:56 METAR KPVC 202056Z AUTO 07009KT 10SM FEW025 BKN030 OVC036 17/13 A3027 RMK AO2
                 SLP249 T01720128 53006 =
2018-09-20 15:56 METAR KPVC 201956Z AUTO 05010KT 10SM FEW022 OVC033 18/13 A3026 RMK AO2 SLP245
                 T01830128 =
2018-09-20 15:31 METAR KPVC 201931Z AUTO 05011KT 10SM SCT022 BKN028 BKN034 18/13 A3026 RMK AO2 =
2018-09-20 14:56 METAR KPVC 201856Z AUTO 06011KT 10SM SCT048 19/13 A3025 RMK AO2 SLP243 T01890133
                 =
2018-09-20 13:56 METAR KPVC 201756Z AUTO 05013KT 10SM FEW020 BKN033 19/14 A3025 RMK AO2 SLP242
                 60000 T01890139 10194 20167 52000 =
2018-09-20 12:56 METAR KPVC 201656Z AUTO 05012KT 10SM FEW014 SCT032 18/14 A3025 RMK AO2 SLP243
                 T01830144 =
2018-09-20 11:56 METAR KPVC 201556Z AUTO 05014KT 10SM FEW011 18/15 A3025 RMK AO2 SLP241 T01830150
                 =
2018-09-20 11:42 METAR KPVC 201542Z AUTO 04013KT 10SM FEW011 SCT017 19/15 A3025 RMK AO2 =
2018-09-20 10:56 METAR KPVC 201456Z AUTO 05014KT 10SM BKN011 BKN014 OVC050 18/16 A3025 RMK AO2
                 RAE03 CIG 009V013 SLP242 P0000 60000 T01780156 51014 =
2018-09-20 09:56 METAR KPVC 201356Z AUTO 04013KT 5SM -RA BR BKN011 OVC044 17/16 A3023 RMK AO2
                 SLP237 P0000 T01670156 =
2018-09-20 09:54 METAR KPVC 201354Z AUTO 04015KT 4SM -RA BR BKN011 OVC042 17/16 A3023 RMK AO2
                 P0000 =
2018-09-20 09:23 METAR KPVC 201323Z AUTO 04011KT 8SM -RA FEW007 BKN028 OVC037 17/16 A3021 RMK AO2
                 P0000 =
2018-09-20 08:56 METAR KPVC 201256Z AUTO 04012G18KT 7SM -RA FEW005 BKN013 OVC026 17/16 A3021 RMK
                 AO2 RAB53 SLP228 P0000 T01670156 =
2018-09-20 08:49 METAR KPVC 201249Z AUTO 04012G18KT 10SM BKN013 BKN017 OVC026 17/16 A3020 RMK AO2
                 =
2018-09-20 07:56 METAR KPVC 201156Z AUTO 05011KT 10SM FEW008 BKN024 OVC055 17/16 A3018 RMK AO2
                 SLP217 60000 T01670156 10167 20161 53023 =
2018-09-20 07:42 METAR KPVC 201142Z AUTO 06011G18KT 10SM SCT010 BKN021 OVC026 17/16 A3017 RMK AO2
                 =
2018-09-20 06:56 METAR KPVC 201056Z AUTO 05012KT 10SM FEW007 BKN012 OVC025 16/16 A3015 RMK AO2
                 RAE47 SLP209 P0000 T01610156 =
2018-09-20 06:39 METAR KPVC 201039Z AUTO 04012KT 8SM -RA SCT007 BKN011 OVC018 16/16 A3014 RMK AO2
                 P0000 =
2018-09-20 05:56 METAR KPVC 200956Z AUTO 05016KT 4SM -RA BR OVC009 16/16 A3013 RMK AO2 RAB50 CIG
                 005V012 SLP202 P0000 T01610156 =
2018-09-20 04:56 METAR KPVC 200856Z AUTO 03015KT 8SM BKN007 OVC013 16/16 A3011 RMK AO2 CIG
                 004V009 SLP194 T01610156 53004 =
2018-09-20 03:56 METAR KPVC 200756Z AUTO 03015KT 8SM OVC007 16/16 A3010 RMK AO2 CIG 005V011
                 SLP192 T01610156 =
2018-09-20 02:56 METAR KPVC 200656Z AUTO 03017G20KT 10SM OVC010 17/15 A3009 RMK AO2 SLP190
                 T01670150 =
2018-09-20 02:09 METAR KPVC 200609Z AUTO 03015KT 9SM OVC012 16/15 A3009 RMK AO2 =
2018-09-20 00:56 METAR KPVC 200456Z AUTO 03017G22KT 10SM BKN015 OVC022 17/14 A3008 RMK AO2 SLP186
                 T01670144 401890161 =
2018-09-19 23:56 METAR KPVC 200356Z AUTO 03018G22KT 10SM OVC020 17/14 A3007 RMK AO2 SLP182
                 T01670139 =
2018-09-19 22:56 METAR KPVC 200256Z AUTO 03018G26KT 10SM BKN018 BKN023 OVC042 17/14 A3007 RMK AO2
                 PK WND 04028/0240 SLP181 T01670139 51004 =
2018-09-19 22:15 METAR KPVC 200215Z AUTO 04016G24KT 10SM FEW019 SCT030 OVC038 17/14 A3006 RMK AO2
                 PK WND 04026/0200 =
2018-09-19 21:56 METAR KPVC 200156Z AUTO 04016G25KT 10SM BKN019 BKN025 OVC034 17/14 A3006 RMK AO2
                 SLP179 T01670139 =
2018-09-19 21:49 METAR KPVC 200149Z AUTO 05020G25KT 10SM SCT016 BKN022 OVC036 17/13 A3006 RMK AO2
                 =
2018-09-19 21:20 METAR KPVC 200120Z AUTO 04016G21KT 10SM BKN014 BKN021 OVC029 16/14 A3006 RMK AO2
                 =
2018-09-19 20:56 METAR KPVC 200056Z AUTO 04017G22KT 10SM BKN017 BKN024 OVC031 16/13 A3006 RMK AO2
                 SLP179 T01610133 =
2018-09-19 19:56 METAR KPVC 192356Z AUTO 04015G20KT 10SM BKN016 OVC023 16/13 A3005 RMK AO2 SLP175
                 T01610133 10183 20161 51023 =
2018-09-19 18:56 METAR KPVC 192256Z AUTO 04014KT 10SM OVC016 16/14 A3004 RMK AO2 SLP172 T01610139
                 =

Support USWX by starting your Amazon purchase here.